Time;durP1;ratioP1;P1;durP2;ratioP2;P2;SDS_P1;SDS_P2;PMS_P1;PMS_P2;Temp;Humidity;BMP_temperature;BMP_pressure;BME280_temperature;BME280_humidity;BME280_pressure;Samples;Min_cycle;Max_cycle;Signal;HPM_P1;HPM_P2
2023/12/31 00:00:41;;;;;;;12.75;8.90;;;4.30;99.90;;;;;;4899673;29;20040;-72
2023/12/31 00:03:08;;;;;;;13.38;8.93;;;4.20;99.90;;;;;;4883339;29;20039;-72
2023/12/31 00:05:33;;;;;;;15.90;8.88;;;4.10;99.90;;;;;;4899911;29;20511;-73
2023/12/31 00:07:59;;;;;;;13.68;8.32;;;4.30;99.90;;;;;;4900189;29;20044;-74
2023/12/31 00:10:25;;;;;;;15.73;9.00;;;4.30;99.90;;;;;;4903519;29;20044;-74
2023/12/31 00:12:51;;;;;;;12.95;8.52;;;4.40;99.90;;;;;;4903440;29;20036;-73
2023/12/31 00:15:17;;;;;;;14.52;9.23;;;4.40;99.90;;;;;;4902174;29;20758;-74
2023/12/31 00:17:42;;;;;;;14.25;9.73;;;4.40;99.90;;;;;;4905355;29;21313;-74
2023/12/31 00:20:08;;;;;;;13.43;8.60;;;4.40;99.90;;;;;;4905587;29;20083;-74
2023/12/31 00:22:34;;;;;;;12.95;9.23;;;4.50;99.90;;;;;;4905605;29;20483;-76
2023/12/31 00:25:00;;;;;;;13.63;8.70;;;4.60;99.90;;;;;;4905529;29;20047;-74
2023/12/31 00:27:27;;;;;;;12.82;8.60;;;4.60;99.90;;;;;;4905211;29;20401;-75
2023/12/31 00:29:52;;;;;;;15.38;9.27;;;4.60;99.90;;;;;;4905282;29;20028;-74
2023/12/31 00:32:18;;;;;;;12.80;8.88;;;4.60;99.90;;;;;;4905000;29;20399;-75
2023/12/31 00:34:44;;;;;;;13.48;9.55;;;4.80;99.90;;;;;;4905444;29;20036;-75
2023/12/31 00:37:09;;;;;;;15.52;10.07;;;4.80;99.90;;;;;;4905511;29;20475;-74
2023/12/31 00:39:35;;;;;;;16.67;10.13;;;4.70;99.90;;;;;;4904939;29;20107;-75
2023/12/31 00:42:01;;;;;;;13.90;9.68;;;4.70;99.90;;;;;;4904940;29;20032;-74
2023/12/31 00:44:26;;;;;;;14.80;9.68;;;4.70;99.90;;;;;;4904952;29;20471;-75
2023/12/31 00:46:52;;;;;;;14.18;9.13;;;4.40;99.90;;;;;;4905254;29;20032;-74
2023/12/31 00:49:18;;;;;;;14.65;9.35;;;4.40;99.90;;;;;;4904855;29;20083;-74
2023/12/31 00:51:44;;;;;;;13.05;8.43;;;4.50;99.90;;;;;;4904866;29;20491;-74
2023/12/31 00:54:10;;;;;;;13.10;8.32;;;4.50;99.90;;;;;;4905025;29;20499;-73
2023/12/31 00:56:35;;;;;;;13.80;8.32;;;4.50;99.90;;;;;;4904999;29;20126;-75
2023/12/31 00:59:02;;;;;;;14.70;8.68;;;4.30;99.90;;;;;;4905369;29;20678;-74
2023/12/31 01:01:28;;;;;;;12.98;8.63;;;4.20;99.90;;;;;;4904790;29;20051;-75
2023/12/31 01:03:54;;;;;;;13.73;8.68;;;4.20;99.90;;;;;;4904861;29;20446;-74
2023/12/31 01:06:19;;;;;;;13.48;8.65;;;4.00;99.90;;;;;;4904326;29;20090;-75
2023/12/31 01:08:45;;;;;;;13.88;8.30;;;3.90;99.90;;;;;;4887456;29;20036;-74
2023/12/31 01:11:11;;;;;;;12.43;8.15;;;4.00;99.90;;;;;;4904217;29;20134;-73
2023/12/31 01:13:37;;;;;;;15.07;8.50;;;3.90;99.90;;;;;;4904313;29;20028;-74
2023/12/31 01:16:04;;;;;;;12.27;8.35;;;4.00;99.90;;;;;;4904039;29;20090;-74
2023/12/31 01:18:30;;;;;;;13.73;8.60;;;4.10;99.90;;;;;;4904570;29;20032;-74
2023/12/31 01:20:56;;;;;;;15.10;8.60;;;3.90;99.90;;;;;;4904245;29;20111;-74
2023/12/31 01:23:21;;;;;;;16.63;9.00;;;3.90;99.90;;;;;;4904242;29;20040;-74
2023/12/31 01:25:47;;;;;;;14.85;9.65;;;4.10;99.90;;;;;;4904599;29;20071;-74
2023/12/31 01:28:13;;;;;;;16.17;8.80;;;3.90;99.90;;;;;;4903593;29;20443;-75
2023/12/31 01:30:39;;;;;;;13.65;8.40;;;3.90;99.90;;;;;;4903967;29;20035;-74
2023/12/31 01:33:04;;;;;;;10.98;8.07;;;3.90;99.90;;;;;;4904123;29;20180;-75
2023/12/31 01:35:30;;;;;;;13.07;7.57;;;3.90;99.90;;;;;;4904158;29;20266;-74
2023/12/31 01:37:56;;;;;;;12.52;8.60;;;3.90;99.90;;;;;;4903768;29;20483;-74
2023/12/31 01:40:21;;;;;;;13.02;8.77;;;4.20;99.90;;;;;;4903902;29;20032;-73
2023/12/31 01:45:59;;;;;;;11.40;7.88;;;4.50;99.90;;;;;;4897321;29;20043;-74
2023/12/31 01:48:25;;;;;;;13.88;8.30;;;4.70;99.90;;;;;;4903347;29;20036;-75
2023/12/31 01:50:51;;;;;;;13.27;9.05;;;4.70;99.90;;;;;;4903978;29;20375;-74
2023/12/31 01:53:19;;;;;;;13.70;8.10;;;4.80;99.90;;;;;;4903539;29;20557;-75
2023/12/31 01:55:46;;;;;;;15.30;8.40;;;4.80;99.90;;;;;;4903974;29;20056;-74
2023/12/31 01:58:13;;;;;;;13.60;9.30;;;4.80;99.90;;;;;;4903538;29;20020;-74
2023/12/31 02:00:39;;;;;;;13.07;8.32;;;4.80;99.90;;;;;;4903634;29;20036;-73
2023/12/31 02:03:04;;;;;;;13.70;8.63;;;4.90;99.90;;;;;;4903974;29;20506;-75
2023/12/31 02:05:30;;;;;;;14.70;8.77;;;4.90;99.90;;;;;;4904093;29;20043;-75
2023/12/31 02:07:56;;;;;;;14.55;8.63;;;4.50;99.90;;;;;;4903520;29;20099;-74
2023/12/31 02:10:22;;;;;;;13.52;8.23;;;4.30;99.90;;;;;;4903825;29;20135;-74
2023/12/31 02:12:47;;;;;;;15.07;9.07;;;4.20;99.90;;;;;;4903410;29;20623;-75
2023/12/31 02:15:13;;;;;;;14.65;8.73;;;4.20;99.90;;;;;;4903699;29;20091;-75
2023/12/31 02:17:39;;;;;;;15.27;8.02;;;4.10;99.90;;;;;;4903604;29;20407;-74
2023/12/31 02:20:06;;;;;;;13.15;8.80;;;4.10;99.90;;;;;;4902672;29;20731;-75
2023/12/31 02:22:32;;;;;;;15.07;8.10;;;4.10;99.90;;;;;;4903888;29;20395;-74
2023/12/31 02:25:02;;;;;;;13.70;8.18;;;4.30;99.90;;;;;;4903698;29;20039;-75
2023/12/31 02:27:28;;;;;;;14.40;9.30;;;4.30;99.90;;;;;;4903261;29;20783;-73
2023/12/31 02:29:59;;;;;;;12.95;7.53;;;4.40;99.90;;;;;;4903402;29;20340;-72
2023/12/31 02:32:24;;;;;;;12.32;7.63;;;4.30;99.90;;;;;;4903557;29;20135;-75
2023/12/31 02:34:50;;;;;;;14.00;7.90;;;4.30;99.90;;;;;;4886179;29;20148;-75
2023/12/31 02:37:16;;;;;;;13.68;7.85;;;4.30;99.90;;;;;;4903263;29;20044;-74
2023/12/31 02:39:41;;;;;;;14.38;7.85;;;4.30;99.90;;;;;;4903102;29;20042;-75
2023/12/31 02:42:07;;;;;;;12.98;7.95;;;4.40;99.90;;;;;;4903484;29;20036;-76
2023/12/31 02:44:32;;;;;;;13.23;7.47;;;4.40;99.90;;;;;;4903434;29;20064;-74
2023/12/31 02:46:58;;;;;;;11.80;7.20;;;4.40;99.90;;;;;;4903068;29;20612;-74
2023/12/31 02:49:24;;;;;;;11.38;6.68;;;4.30;99.90;;;;;;4903472;29;20447;-74
2023/12/31 02:51:49;;;;;;;12.43;7.53;;;4.30;99.90;;;;;;4903474;29;20059;-74
2023/12/31 02:54:15;;;;;;;14.23;7.53;;;4.30;99.90;;;;;;4903314;29;20039;-76
2023/12/31 02:56:41;;;;;;;12.52;7.70;;;4.30;99.90;;;;;;4903994;29;20176;-74
2023/12/31 02:59:07;;;;;;;14.52;8.05;;;4.40;99.90;;;;;;4902509;29;20032;-75
2023/12/31 03:01:33;;;;;;;12.70;6.80;;;4.40;99.90;;;;;;4903285;29;20513;-74
2023/12/31 03:03:59;;;;;;;10.80;6.97;;;4.30;99.90;;;;;;4902594;29;20044;-74
2023/12/31 03:06:30;;;;;;;11.10;7.40;;;4.40;99.90;;;;;;4902947;29;20024;-74
2023/12/31 03:08:58;;;;;;;12.38;7.70;;;4.40;99.90;;;;;;4903198;29;20044;-73
2023/12/31 03:11:25;;;;;;;12.45;7.47;;;4.30;99.90;;;;;;4903147;29;20471;-74
2023/12/31 03:13:51;;;;;;;11.35;7.50;;;4.30;99.90;;;;;;4903186;29;20036;-74
2023/12/31 03:16:17;;;;;;;12.98;7.00;;;4.40;99.90;;;;;;4902721;29;20050;-74
2023/12/31 03:18:43;;;;;;;14.20;7.50;;;4.40;99.90;;;;;;4902885;29;20100;-74
2023/12/31 03:21:14;;;;;;;11.40;7.18;;;4.50;99.90;;;;;;4902753;29;20499;-74
2023/12/31 03:23:40;;;;;;;12.38;7.63;;;4.50;99.90;;;;;;4902690;29;20038;-74
2023/12/31 03:26:08;;;;;;;12.18;7.45;;;4.40;99.90;;;;;;4902574;29;20032;-74
2023/12/31 03:28:34;;;;;;;11.82;7.88;;;4.40;99.90;;;;;;4902951;29;20107;-74
2023/12/31 03:31:00;;;;;;;12.18;7.68;;;4.40;99.90;;;;;;4905233;29;20706;-74
2023/12/31 03:33:26;;;;;;;13.38;7.57;;;4.20;99.90;;;;;;4906310;29;20067;-74
2023/12/31 03:35:51;;;;;;;13.05;7.95;;;4.20;99.90;;;;;;4906504;29;20055;-74
2023/12/31 03:38:18;;;;;;;14.05;7.78;;;4.20;99.90;;;;;;4905663;29;20135;-74
2023/12/31 03:40:43;;;;;;;15.13;8.25;;;4.30;99.90;;;;;;4906463;29;20043;-75
2023/12/31 03:43:09;;;;;;;12.25;7.68;;;4.30;99.90;;;;;;4906424;29;20041;-76
2023/12/31 03:45:34;;;;;;;12.43;8.55;;;4.40;99.90;;;;;;4905777;29;20067;-74
2023/12/31 03:48:00;;;;;;;11.43;8.10;;;4.40;99.90;;;;;;4905629;29;20036;-74
2023/12/31 03:50:26;;;;;;;12.93;7.65;;;4.50;99.90;;;;;;4906214;29;20110;-74
2023/12/31 03:52:51;;;;;;;13.35;8.20;;;4.70;99.90;;;;;;4905881;29;20131;-75
2023/12/31 03:55:17;;;;;;;12.95;8.23;;;4.80;99.90;;;;;;4906307;29;20119;-75
2023/12/31 03:57:43;;;;;;;15.68;8.48;;;4.70;99.90;;;;;;4905798;29;20038;-74
2023/12/31 04:00:09;;;;;;;12.93;7.88;;;4.60;99.90;;;;;;4905669;29;20726;-76
2023/12/31 04:02:35;;;;;;;12.05;7.55;;;4.80;99.90;;;;;;4886131;29;20044;-75
2023/12/31 04:05:02;;;;;;;12.07;7.35;;;4.80;99.90;;;;;;4900203;29;20051;-75
2023/12/31 04:07:28;;;;;;;12.98;7.78;;;4.90;99.90;;;;;;4900679;29;20028;-75
2023/12/31 04:09:54;;;;;;;13.52;8.00;;;4.80;99.90;;;;;;4901147;29;20046;-75
2023/12/31 04:12:19;;;;;;;11.60;7.00;;;4.70;99.90;;;;;;4900729;29;20131;-75
2023/12/31 04:14:45;;;;;;;10.85;7.13;;;4.60;99.90;;;;;;4900377;29;20107;-76
2023/12/31 04:17:10;;;;;;;13.73;8.10;;;4.50;99.90;;;;;;4898903;29;20036;-75
2023/12/31 04:19:36;;;;;;;15.35;7.88;;;4.60;99.90;;;;;;4898774;29;20036;-76
2023/12/31 04:22:05;;;;;;;10.80;7.07;;;4.60;99.90;;;;;;4898950;29;20055;-75
2023/12/31 04:24:30;;;;;;;12.07;7.70;;;4.70;99.90;;;;;;4901590;29;20028;-75
2023/12/31 04:26:57;;;;;;;12.32;6.85;;;4.60;99.90;;;;;;4900416;29;20043;-75
2023/12/31 04:29:23;;;;;;;10.15;6.78;;;4.50;99.90;;;;;;4898743;29;20114;-75
2023/12/31 04:31:48;;;;;;;11.90;8.18;;;4.60;99.90;;;;;;4898908;29;20127;-75
2023/12/31 04:34:14;;;;;;;13.02;8.05;;;4.60;99.90;;;;;;4901754;29;20135;-75
2023/12/31 04:36:46;;;;;;;14.18;8.27;;;4.60;99.90;;;;;;4901656;29;20035;-75
2023/12/31 04:39:12;;;;;;;14.02;8.07;;;4.70;99.90;;;;;;4901587;29;20032;-75
2023/12/31 04:41:38;;;;;;;11.25;7.78;;;4.90;99.90;;;;;;4900821;29;20062;-75
2023/12/31 04:44:04;;;;;;;10.43;7.28;;;5.00;99.90;;;;;;4901402;29;20039;-75
2023/12/31 04:46:30;;;;;;;12.55;7.47;;;4.90;99.90;;;;;;4901265;29;20039;-75
2023/12/31 04:48:55;;;;;;;11.48;7.57;;;4.70;99.90;;;;;;4901609;29;20396;-76
2023/12/31 04:51:25;;;;;;;10.70;7.53;;;4.70;99.90;;;;;;4901272;29;20131;-75
2023/12/31 04:53:52;;;;;;;11.15;6.70;;;4.60;99.90;;;;;;4900889;29;20040;-76
2023/12/31 04:56:22;;;;;;;11.15;6.70;;;4.70;99.90;;;;;;4900849;29;20032;-76
2023/12/31 04:58:52;;;;;;;13.55;7.40;;;4.70;99.90;;;;;;4900834;29;20024;-75
2023/12/31 05:01:18;;;;;;;12.13;7.90;;;4.60;99.90;;;;;;4901101;29;20032;-75
2023/12/31 05:03:45;;;;;;;12.80;7.25;;;4.60;99.90;;;;;;4899587;29;20058;-75
2023/12/31 05:06:15;;;;;;;11.77;7.75;;;4.70;99.90;;;;;;4897947;29;20686;-75
2023/12/31 05:08:43;;;;;;;11.65;7.95;;;4.70;99.90;;;;;;4880508;29;20436;-76
2023/12/31 05:11:09;;;;;;;11.10;7.50;;;4.80;99.90;;;;;;4897510;29;20028;-75
2023/12/31 05:13:34;;;;;;;11.07;6.88;;;4.60;99.90;;;;;;4897442;29;20440;-75
2023/12/31 05:16:02;;;;;;;12.02;8.32;;;4.50;99.90;;;;;;4899985;29;20028;-75
2023/12/31 05:18:27;;;;;;;11.82;7.13;;;4.50;99.90;;;;;;4901158;29;20036;-76
2023/12/31 05:20:53;;;;;;;11.25;7.68;;;4.60;99.90;;;;;;4900536;29;21289;-76
2023/12/31 05:23:19;;;;;;;10.75;6.45;;;4.60;99.90;;;;;;4900666;29;20570;-75
2023/12/31 05:25:45;;;;;;;11.45;7.13;;;4.50;99.90;;;;;;4900836;29;20427;-75
2023/12/31 05:28:10;;;;;;;12.93;7.20;;;4.50;99.90;;;;;;4900802;29;20028;-75
2023/12/31 05:30:36;;;;;;;17.33;9.68;;;4.50;99.90;;;;;;4900651;29;20474;-75
2023/12/31 05:33:02;;;;;;;21.83;10.55;;;4.50;99.90;;;;;;4899908;29;20047;-75
2023/12/31 05:35:29;;;;;;;14.48;8.93;;;4.40;99.90;;;;;;4896993;29;20052;-76
2023/12/31 05:37:54;;;;;;;13.88;8.25;;;4.30;99.90;;;;;;4897937;29;20460;-75
2023/12/31 05:40:20;;;;;;;11.15;7.50;;;4.40;99.90;;;;;;4897311;29;20032;-75
2023/12/31 05:42:46;;;;;;;11.32;6.80;;;4.50;99.90;;;;;;4897510;29;20043;-75
2023/12/31 05:45:11;;;;;;;11.18;7.22;;;4.60;99.90;;;;;;4896874;29;20057;-75
2023/12/31 05:47:37;;;;;;;12.45;7.35;;;4.60;99.90;;;;;;4897417;29;20032;-75
2023/12/31 05:50:03;;;;;;;12.80;6.68;;;4.60;99.90;;;;;;4899403;29;20043;-76
2023/12/31 05:52:28;;;;;;;11.63;7.07;;;4.60;99.90;;;;;;4900241;29;20040;-75
2023/12/31 05:54:54;;;;;;;12.07;7.82;;;4.60;99.90;;;;;;4900300;29;20040;-74
2023/12/31 05:57:19;;;;;;;14.55;8.63;;;4.60;99.90;;;;;;4900166;29;20063;-76
2023/12/31 05:59:45;;;;;;;12.70;8.00;;;4.40;99.90;;;;;;4899552;29;20039;-74
2023/12/31 06:02:11;;;;;;;12.80;7.95;;;4.20;99.90;;;;;;4900073;29;20940;-75
2023/12/31 06:04:36;;;;;;;18.73;10.65;;;4.20;99.90;;;;;;4899655;29;20178;-76
2023/12/31 06:07:02;;;;;;;13.57;8.93;;;4.20;99.90;;;;;;4899113;29;20136;-75
2023/12/31 06:09:28;;;;;;;13.27;8.80;;;4.20;99.90;;;;;;4896555;29;20044;-75
2023/12/31 06:11:54;;;;;;;13.32;8.02;;;4.20;99.90;;;;;;4897713;29;20036;-75
2023/12/31 06:14:20;;;;;;;14.90;9.18;;;4.20;99.90;;;;;;4900275;29;20051;-75
2023/12/31 06:16:45;;;;;;;14.95;8.85;;;4.00;99.90;;;;;;4896824;29;20476;-75
2023/12/31 06:19:11;;;;;;;12.68;8.75;;;4.10;99.90;;;;;;4896837;29;20483;-75
2023/12/31 06:21:36;;;;;;;14.23;9.07;;;4.30;99.90;;;;;;4896418;29;20060;-75
2023/12/31 06:24:02;;;;;;;15.00;7.90;;;4.40;99.90;;;;;;4896329;29;20036;-75
2023/12/31 06:26:28;;;;;;;12.73;7.75;;;4.30;99.90;;;;;;4896544;29;20032;-75
2023/12/31 06:28:53;;;;;;;11.43;7.90;;;4.30;99.90;;;;;;4896475;29;20096;-75
2023/12/31 06:31:19;;;;;;;10.70;6.93;;;4.30;99.90;;;;;;4896884;29;20044;-75
2023/12/31 06:33:45;;;;;;;10.95;7.50;;;4.40;99.90;;;;;;4896580;29;20135;-75
2023/12/31 06:36:11;;;;;;;12.48;7.63;;;4.50;99.90;;;;;;4896683;29;20033;-75
2023/12/31 06:38:37;;;;;;;12.52;7.57;;;4.60;99.90;;;;;;4896787;29;20459;-74
2023/12/31 06:41:08;;;;;;;11.27;6.80;;;4.70;99.90;;;;;;4897009;29;20891;-75
2023/12/31 06:43:38;;;;;;;11.07;7.13;;;4.70;99.90;;;;;;4896727;29;20135;-75
2023/12/31 06:46:05;;;;;;;11.52;6.82;;;4.70;99.90;;;;;;4896648;29;20032;-75
2023/12/31 06:48:30;;;;;;;13.50;8.23;;;4.60;99.90;;;;;;4896506;29;20028;-75
2023/12/31 06:50:56;;;;;;;13.30;8.02;;;4.40;99.90;;;;;;4896118;29;20691;-74
2023/12/31 06:53:22;;;;;;;13.55;9.13;;;4.40;99.90;;;;;;4896679;29;20864;-75
2023/12/31 06:55:48;;;;;;;13.18;8.88;;;4.40;99.90;;;;;;4896552;29;20091;-75
2023/12/31 06:58:14;;;;;;;14.85;8.48;;;4.30;99.90;;;;;;4896483;29;20043;-75
2023/12/31 07:00:40;;;;;;;14.18;8.80;;;4.40;99.90;;;;;;4895875;29;20091;-75
2023/12/31 07:03:06;;;;;;;12.15;7.60;;;4.60;99.90;;;;;;4896061;29;20036;-75
2023/12/31 07:05:32;;;;;;;12.70;8.18;;;4.60;99.90;;;;;;4881200;29;20020;-74
2023/12/31 07:07:57;;;;;;;12.23;7.88;;;4.50;99.90;;;;;;4900055;29;20028;-75
2023/12/31 07:10:23;;;;;;;15.13;8.18;;;4.50;99.90;;;;;;4899876;29;20035;-75
2023/12/31 07:12:49;;;;;;;11.77;7.88;;;4.50;99.90;;;;;;4900023;29;20188;-75
2023/12/31 07:15:16;;;;;;;12.65;7.25;;;4.60;99.90;;;;;;4900430;29;20044;-75
2023/12/31 07:17:41;;;;;;;12.35;7.22;;;4.80;99.90;;;;;;4899325;29;20066;-75
2023/12/31 07:20:08;;;;;;;11.88;7.30;;;4.80;99.90;;;;;;4899423;29;20090;-75
2023/12/31 07:22:33;;;;;;;10.50;7.30;;;4.80;99.90;;;;;;4899710;29;20040;-75
2023/12/31 07:25:02;;;;;;;11.88;7.43;;;4.80;99.90;;;;;;4899974;29;21199;-75
2023/12/31 07:27:29;;;;;;;10.75;6.97;;;4.80;99.90;;;;;;4899944;29;20573;-75
2023/12/31 07:29:54;;;;;;;13.00;7.80;;;4.70;99.90;;;;;;4900310;29;20103;-75
2023/12/31 07:32:20;;;;;;;14.52;7.93;;;4.60;99.90;;;;;;4898999;29;20048;-75
2023/12/31 07:34:46;;;;;;;14.57;8.75;;;4.40;99.90;;;;;;4899409;29;20039;-75
2023/12/31 07:37:11;;;;;;;17.50;8.38;;;4.40;99.90;;;;;;4900020;29;20040;-75
2023/12/31 07:39:40;;;;;;;11.48;7.15;;;4.50;99.90;;;;;;4899455;29;20642;-75
2023/12/31 07:42:06;;;;;;;14.30;7.10;;;4.50;99.90;;;;;;4900088;29;20039;-76
2023/12/31 07:44:32;;;;;;;12.82;8.77;;;4.50;99.90;;;;;;4900076;29;20032;-76
2023/12/31 07:46:58;;;;;;;18.73;8.48;;;4.40;99.90;;;;;;4899571;29;20059;-76
2023/12/31 07:49:24;;;;;;;12.75;8.30;;;4.30;99.90;;;;;;4899172;29;20483;-75
2023/12/31 07:51:50;;;;;;;15.52;8.55;;;4.20;99.90;;;;;;4899207;29;20064;-75
2023/12/31 07:54:16;;;;;;;11.98;8.48;;;4.30;99.90;;;;;;4899086;29;20543;-75
2023/12/31 07:56:42;;;;;;;13.93;8.50;;;4.30;99.90;;;;;;4899328;29;20028;-75
2023/12/31 07:59:08;;;;;;;12.57;7.72;;;4.40;99.90;;;;;;4899272;29;20101;-75
2023/12/31 08:01:34;;;;;;;15.30;8.93;;;4.50;99.90;;;;;;4899183;29;20235;-75
2023/12/31 08:03:59;;;;;;;12.57;8.73;;;4.40;99.90;;;;;;4898473;29;20072;-76
2023/12/31 08:06:26;;;;;;;14.93;10.30;;;4.40;99.90;;;;;;4898800;29;20040;-74
2023/12/31 08:08:52;;;;;;;15.02;9.82;;;4.40;99.90;;;;;;4898351;29;20039;-75
2023/12/31 08:11:20;;;;;;;18.33;8.82;;;4.30;99.90;;;;;;4898691;29;20032;-75
2023/12/31 08:13:46;;;;;;;14.10;9.15;;;4.40;99.90;;;;;;4896161;29;20039;-74
2023/12/31 08:16:12;;;;;;;14.82;8.98;;;4.50;99.90;;;;;;4897593;29;20032;-75
2023/12/31 08:18:38;;;;;;;14.68;8.90;;;4.50;99.90;;;;;;4900822;29;20079;-74
2023/12/31 08:21:04;;;;;;;13.57;9.75;;;4.50;99.90;;;;;;4901422;29;20055;-75
2023/12/31 08:23:30;;;;;;;14.05;9.55;;;4.40;99.90;;;;;;4901897;29;20036;-74
2023/12/31 08:25:56;;;;;;;13.30;8.63;;;4.40;99.90;;;;;;4902223;29;20071;-74
2023/12/31 08:28:22;;;;;;;17.17;10.30;;;4.40;99.90;;;;;;4901803;29;20473;-74
2023/12/31 08:30:48;;;;;;;14.98;9.63;;;4.50;99.90;;;;;;4901486;29;20034;-75
2023/12/31 08:33:14;;;;;;;13.73;8.85;;;4.50;99.90;;;;;;4901041;29;20036;-74
2023/12/31 08:35:40;;;;;;;12.95;8.43;;;4.60;99.90;;;;;;4884313;29;20051;-74
2023/12/31 08:38:06;;;;;;;15.35;10.23;;;4.70;99.90;;;;;;4901430;29;21354;-75
2023/12/31 08:40:31;;;;;;;13.38;8.63;;;4.80;99.90;;;;;;4901513;29;20448;-75
2023/12/31 08:42:57;;;;;;;13.98;8.60;;;4.70;99.90;;;;;;4901018;29;20526;-75
2023/12/31 08:45:23;;;;;;;15.70;9.48;;;4.60;99.90;;;;;;4901304;29;20032;-75
2023/12/31 08:47:49;;;;;;;12.18;8.60;;;4.60;99.90;;;;;;4900898;29;20111;-74
2023/12/31 08:50:15;;;;;;;12.55;8.75;;;4.60;99.90;;;;;;4901575;29;20191;-74
2023/12/31 08:52:44;;;;;;;13.85;9.13;;;4.70;99.90;;;;;;4901686;29;20507;-74
2023/12/31 08:55:10;;;;;;;13.52;8.32;;;4.80;99.90;;;;;;4900840;29;20131;-74
2023/12/31 08:57:40;;;;;;;14.65;9.43;;;4.90;99.90;;;;;;4901316;29;20035;-74
2023/12/31 09:00:07;;;;;;;14.15;9.15;;;5.00;99.90;;;;;;4900899;29;20036;-76
2023/12/31 09:02:32;;;;;;;15.63;9.43;;;5.00;99.90;;;;;;4900888;29;20036;-75
2023/12/31 09:04:58;;;;;;;14.65;8.88;;;5.10;99.90;;;;;;4901205;29;20032;-75
2023/12/31 09:07:25;;;;;;;17.38;9.40;;;5.10;99.90;;;;;;4901245;29;21213;-75
2023/12/31 09:09:51;;;;;;;15.57;10.07;;;5.00;99.90;;;;;;4900923;29;20482;-74
2023/12/31 09:12:17;;;;;;;13.70;9.73;;;5.00;99.90;;;;;;4900943;29;21484;-75
2023/12/31 09:14:43;;;;;;;19.77;10.80;;;4.90;99.90;;;;;;4900636;29;20044;-74
2023/12/31 09:17:09;;;;;;;18.05;11.32;;;4.80;99.90;;;;;;4900988;29;20028;-75
2023/12/31 09:19:35;;;;;;;16.08;10.82;;;4.90;99.90;;;;;;4900858;29;20043;-74
2023/12/31 09:22:02;;;;;;;15.68;10.02;;;5.00;99.90;;;;;;4900516;29;20100;-74
2023/12/31 09:24:29;;;;;;;18.13;10.43;;;5.00;99.90;;;;;;4900688;29;20686;-75
2023/12/31 09:26:54;;;;;;;15.50;10.57;;;5.10;99.90;;;;;;4900769;29;20036;-75
2023/12/31 09:29:20;;;;;;;20.90;12.63;;;5.20;99.90;;;;;;4900667;29;20452;-74
2023/12/31 09:31:46;;;;;;;19.40;12.82;;;5.10;99.90;;;;;;4900439;29;20115;-74
2023/12/31 09:34:11;;;;;;;17.55;11.40;;;5.00;99.90;;;;;;4900871;29;20662;-74
2023/12/31 09:36:37;;;;;;;22.75;15.10;;;5.10;99.90;;;;;;4900125;29;20099;-74
2023/12/31 09:39:03;;;;;;;26.13;18.02;;;5.20;99.90;;;;;;4900351;29;20039;-74
2023/12/31 09:41:30;;;;;;;22.40;14.75;;;5.20;99.90;;;;;;4900054;29;20079;-75
2023/12/31 09:43:56;;;;;;;21.20;15.52;;;5.20;99.90;;;;;;4900305;29;20091;-75
2023/12/31 09:46:24;;;;;;;22.73;15.60;;;5.10;99.90;;;;;;4900097;29;20162;-74
2023/12/31 09:48:51;;;;;;;23.50;14.70;;;5.10;99.90;;;;;;4900709;29;20048;-75
2023/12/31 09:51:21;;;;;;;22.80;13.65;;;5.20;99.90;;;;;;4900355;29;20040;-74
2023/12/31 09:53:49;;;;;;;20.95;13.60;;;5.10;99.90;;;;;;4900449;29;20036;-75
2023/12/31 09:56:17;;;;;;;17.80;12.10;;;5.10;99.90;;;;;;4900051;29;20028;-75
2023/12/31 09:58:43;;;;;;;19.55;12.65;;;5.10;99.90;;;;;;4899480;29;20078;-74
2023/12/31 10:01:09;;;;;;;20.13;12.82;;;5.10;99.90;;;;;;4900355;29;20123;-75
2023/12/31 10:03:38;;;;;;;20.58;11.95;;;5.10;99.90;;;;;;4900016;29;20062;-74
2023/12/31 10:06:05;;;;;;;19.70;11.85;;;5.10;99.90;;;;;;4900209;29;20042;-74
2023/12/31 10:08:32;;;;;;;19.13;12.98;;;5.20;99.90;;;;;;4900497;29;20501;-75
2023/12/31 10:10:59;;;;;;;17.05;11.93;;;5.30;99.90;;;;;;4900293;29;20042;-74
2023/12/31 10:13:26;;;;;;;18.05;12.73;;;5.20;99.90;;;;;;4900223;29;20107;-75
2023/12/31 10:15:52;;;;;;;17.17;11.10;;;5.10;99.90;;;;;;4899907;29;20028;-75
2023/12/31 10:18:19;;;;;;;17.42;10.20;;;5.10;99.90;;;;;;4899726;29;20046;-75
2023/12/31 10:20:44;;;;;;;15.52;10.68;;;5.30;99.90;;;;;;4900029;29;20067;-75
2023/12/31 10:23:10;;;;;;;17.35;11.52;;;5.30;99.90;;;;;;4900140;29;20095;-75
2023/12/31 10:25:36;;;;;;;17.55;11.85;;;5.40;99.90;;;;;;4899849;29;20032;-75
2023/12/31 10:28:04;;;;;;;15.65;11.27;;;5.40;99.90;;;;;;4899746;29;20129;-75
2023/12/31 10:30:30;;;;;;;17.00;12.10;;;5.10;99.90;;;;;;4899965;29;20044;-75
2023/12/31 10:33:08;;;;;;;15.48;10.25;;;5.00;99.90;;;;;;4899825;29;20046;-76
2023/12/31 10:35:34;;;;;;;17.23;11.63;;;5.00;99.90;;;;;;4900270;29;20047;-75
2023/12/31 10:38:04;;;;;;;17.98;11.60;;;5.00;99.90;;;;;;4899893;29;20035;-76
2023/12/31 10:40:30;;;;;;;17.63;12.10;;;5.10;99.90;;;;;;4901850;29;20066;-75
2023/12/31 10:42:56;;;;;;;18.38;12.02;;;5.20;99.90;;;;;;4903676;29;20039;-76
2023/12/31 10:45:22;;;;;;;16.13;11.95;;;5.30;99.90;;;;;;4903574;29;20165;-75
2023/12/31 10:47:54;;;;;;;18.83;12.25;;;5.30;99.90;;;;;;4903795;29;20080;-76
2023/12/31 10:50:24;;;;;;;16.50;12.02;;;5.40;99.90;;;;;;4902941;29;20467;-75
2023/12/31 10:52:57;;;;;;;20.63;11.90;;;5.30;99.90;;;;;;4903231;29;20050;-75
2023/12/31 10:55:23;;;;;;;20.77;12.55;;;5.20;99.90;;;;;;4903691;29;20064;-75
2023/12/31 10:57:51;;;;;;;21.15;11.77;;;5.20;99.90;;;;;;4903271;29;20811;-75
2023/12/31 11:00:19;;;;;;;17.85;11.65;;;5.20;99.90;;;;;;4902862;29;20494;-76
2023/12/31 11:02:45;;;;;;;16.13;10.93;;;5.30;99.90;;;;;;4903409;29;20052;-76
2023/12/31 11:05:13;;;;;;;17.83;11.93;;;5.30;99.90;;;;;;4903579;29;20047;-75
2023/12/31 11:07:40;;;;;;;18.13;11.45;;;5.30;99.90;;;;;;4903302;29;20064;-75
2023/12/31 11:10:08;;;;;;;19.85;11.63;;;5.20;99.90;;;;;;4871481;29;20500;-76
2023/12/31 11:12:34;;;;;;;17.35;11.02;;;5.20;99.90;;;;;;4903222;29;20429;-76
2023/12/31 11:15:15;;;;;;;16.80;12.38;;;5.20;99.90;;;;;;4902842;29;20076;-75
2023/12/31 11:18:02;;;;;;;18.42;12.13;;;5.10;99.90;;;;;;4902842;29;20024;-75
2023/12/31 11:21:05;;;;;;;18.95;12.48;;;5.20;99.90;;;;;;4902265;29;20609;-75
2023/12/31 11:23:44;;;;;;;19.48;11.98;;;5.00;99.90;;;;;;4903140;29;20432;-75
2023/12/31 11:26:12;;;;;;;18.95;11.23;;;4.90;99.90;;;;;;4902593;29;20040;-75
2023/12/31 11:28:45;;;;;;;15.48;11.43;;;4.80;99.90;;;;;;4902719;29;20028;-75
2023/12/31 11:31:11;;;;;;;16.03;10.30;;;4.80;99.90;;;;;;4903028;29;20035;-75
2023/12/31 11:33:39;;;;;;;16.33;10.50;;;4.90;99.90;;;;;;4903045;29;20798;-75
2023/12/31 11:36:13;;;;;;;14.73;10.45;;;4.80;99.90;;;;;;4902407;29;21291;-74
2023/12/31 11:39:00;;;;;;;14.25;10.65;;;4.80;99.90;;;;;;4902504;29;20043;-75
2023/12/31 11:41:39;;;;;;;14.95;11.00;;;4.90;99.90;;;;;;4902202;29;20020;-74
2023/12/31 11:44:04;;;;;;;16.10;11.13;;;5.00;99.90;;;;;;4902480;29;20608;-75
2023/12/31 11:46:33;;;;;;;17.65;11.50;;;5.00;99.90;;;;;;4902299;29;20032;-74
2023/12/31 11:48:59;;;;;;;16.80;11.20;;;5.00;99.90;;;;;;4902070;29;20054;-75
2023/12/31 11:51:28;;;;;;;20.40;11.35;;;5.00;99.90;;;;;;4901757;29;20471;-75
2023/12/31 11:53:58;;;;;;;18.35;11.40;;;5.00;99.90;;;;;;4902156;29;20671;-75
2023/12/31 11:56:26;;;;;;;16.65;11.40;;;5.00;99.90;;;;;;4901571;29;21381;-75
2023/12/31 11:58:54;;;;;;;15.45;11.18;;;4.90;99.90;;;;;;4901818;29;20567;-75
2023/12/31 12:01:19;;;;;;;16.35;11.40;;;4.90;99.90;;;;;;4899572;29;20107;-75
2023/12/31 12:03:45;;;;;;;21.17;13.55;;;4.90;99.90;;;;;;4901819;29;20040;-75
2023/12/31 12:06:11;;;;;;;18.27;12.25;;;4.90;99.90;;;;;;4901941;29;21392;-75
2023/12/31 12:08:38;;;;;;;19.55;13.38;;;4.70;99.90;;;;;;4901586;29;20067;-76
2023/12/31 12:11:04;;;;;;;19.70;13.75;;;4.80;99.90;;;;;;4901514;29;20447;-76
2023/12/31 12:13:30;;;;;;;21.15;13.43;;;4.90;99.90;;;;;;4901769;29;20151;-76
2023/12/31 12:15:57;;;;;;;16.27;11.88;;;4.90;99.90;;;;;;4901465;29;20373;-76
2023/12/31 12:18:24;;;;;;;16.65;11.90;;;5.00;99.90;;;;;;4901564;29;20090;-76
2023/12/31 12:20:50;;;;;;;15.00;11.40;;;5.00;99.90;;;;;;4901563;29;20527;-76
2023/12/31 12:23:19;;;;;;;18.58;12.20;;;4.90;99.90;;;;;;4901031;29;20091;-76
2023/12/31 12:25:45;;;;;;;16.00;11.93;;;4.90;99.90;;;;;;4901511;29;20111;-75
2023/12/31 12:28:11;;;;;;;18.58;12.05;;;4.80;99.90;;;;;;4900986;29;20591;-75
2023/12/31 12:30:43;;;;;;;20.90;13.52;;;4.90;99.90;;;;;;4901378;29;20032;-76
2023/12/31 12:33:11;;;;;;;23.13;16.95;;;5.00;99.90;;;;;;4901667;29;20071;-76
2023/12/31 12:35:42;;;;;;;18.67;11.68;;;5.00;99.90;;;;;;4901747;29;20168;-75
2023/12/31 12:38:08;;;;;;;20.70;13.30;;;4.90;99.90;;;;;;4901355;29;20063;-75
2023/12/31 12:40:39;;;;;;;28.13;17.13;;;4.80;99.90;;;;;;4901741;29;20040;-75
2023/12/31 12:43:07;;;;;;;27.27;18.52;;;4.70;99.90;;;;;;4901165;29;20107;-75